Aérodrome :
LOGIN :

S'inscrire | Disclaimer

   EN    FR    IT 

 










Légende :    VFR   VFR Marginal   IFR   IFR Intensif   IFR Très Intensif
Visi : 
Plafond : 
>= 8 km
>= 3000ft
5 à 8 km
1000 à 3000 ft
1500m à 5 km
500 à 1000 ft
800 à 1500m
200 à 500 ft
< 800m
< 200 ft
Symboles :   Orages  Brouillard  Fortes neiges  Fortes précipitations  Vent > 20 kt
SIGMETs :   Divers  Orages  Givrage  Turbulence  Onde Orograph.  Cendres Volcan.







- Altitude de l'aérodrome : 195 ft
- Voir les cartes d'approche


LFMY - Salon de Provence

DERNIER METAR :
  • 190230Z AUTO 36002KT 9999 OVC037 03/02 Q1023

METARs EXPIRÉS :
  • 190200Z AUTO 00000KT 9999 BKN038 03/02 Q1023
  • 190130Z AUTO 00000KT 9999 OVC037 03/02 Q1024
  • 190100Z AUTO 03001KT 9999 BKN037 02/01 Q1024
  • 190030Z AUTO 00000KT 9999 BKN036 02/01 Q1024
  • 190000Z AUTO 00000KT CAVOK 02/01 Q1024

TAF TAF LFMY
Valide du 18 à 15h jusqu'au 19 à 15h UTC


181400Z 1815/1915 20008KT 9999 SCT040
BECMG 1819/1821 VRB03KT
TEMPO 1900/1907 3000 BR
Pas de NOTAMs connus pour ce terrain.



MET'MAP, la Météo Aéronautique d'un coup d'oeil ! - Copyright ORBIFLY Décembre 2007 - Disclaimer

ORBIFLY MET'MAP TEAM :

Programmation & Développement : Alexandra Zaïnal
Conception & Développement : Baudouin d'Aumeries
Co-Programmation & Développement : Marc-Olivier Méhu
Soutien technique & logistique : Manuel Goepfert

Contact : metmap@orbifly.com




SOURCES & CREDITS :

   NOAA